sensor_id;sensor_type;location;lat;lon;timestamp;temperature;humidity
19908;DHT22;10116;53.112;7.356;2022-08-24T00:01:28;29.70;99.90
19908;DHT22;10116;53.112;7.356;2022-08-24T00:03:55;29.70;99.90
19908;DHT22;10116;53.112;7.356;2022-08-24T00:06:25;29.70;99.90
19908;DHT22;10116;53.112;7.356;2022-08-24T00:08:53;29.70;99.90
19908;DHT22;10116;53.112;7.356;2022-08-24T00:11:19;29.70;99.90
19908;DHT22;10116;53.112;7.356;2022-08-24T00:13:45;29.60;99.90
19908;DHT22;10116;53.112;7.356;2022-08-24T00:16:12;29.60;99.90
19908;DHT22;10116;53.112;7.356;2022-08-24T00:18:38;29.60;99.90
19908;DHT22;10116;53.112;7.356;2022-08-24T00:21:04;29.60;99.90
19908;DHT22;10116;53.112;7.356;2022-08-24T00:23:30;29.60;99.90
19908;DHT22;10116;53.112;7.356;2022-08-24T00:25:56;29.60;99.90
19908;DHT22;10116;53.112;7.356;2022-08-24T00:28:22;29.60;99.90
19908;DHT22;10116;53.112;7.356;2022-08-24T00:30:48;29.60;99.90
19908;DHT22;10116;53.112;7.356;2022-08-24T00:33:14;29.60;99.90
19908;DHT22;10116;53.112;7.356;2022-08-24T00:35:39;29.60;99.90
19908;DHT22;10116;53.112;7.356;2022-08-24T00:38:05;29.60;99.90
19908;DHT22;10116;53.112;7.356;2022-08-24T00:40:35;29.60;99.90
19908;DHT22;10116;53.112;7.356;2022-08-24T00:43:04;29.60;99.90
19908;DHT22;10116;53.112;7.356;2022-08-24T00:45:54;29.60;99.90
19908;DHT22;10116;53.112;7.356;2022-08-24T00:48:26;29.60;99.90
19908;DHT22;10116;53.112;7.356;2022-08-24T00:51:08;29.60;99.90
19908;DHT22;10116;53.112;7.356;2022-08-24T00:53:42;29.60;99.90
19908;DHT22;10116;53.112;7.356;2022-08-24T00:56:13;29.60;99.90
19908;DHT22;10116;53.112;7.356;2022-08-24T00:58:47;29.60;99.90
19908;DHT22;10116;53.112;7.356;2022-08-24T01:01:13;29.60;99.90
19908;DHT22;10116;53.112;7.356;2022-08-24T01:03:41;29.60;99.90
19908;DHT22;10116;53.112;7.356;2022-08-24T01:06:07;29.50;99.90
19908;DHT22;10116;53.112;7.356;2022-08-24T01:08:34;29.60;99.90
19908;DHT22;10116;53.112;7.356;2022-08-24T01:11:08;29.60;99.90
19908;DHT22;10116;53.112;7.356;2022-08-24T01:13:38;29.50;99.90
19908;DHT22;10116;53.112;7.356;2022-08-24T01:16:06;29.50;99.90
19908;DHT22;10116;53.112;7.356;2022-08-24T01:18:32;29.50;99.90
19908;DHT22;10116;53.112;7.356;2022-08-24T01:21:19;29.50;99.90
19908;DHT22;10116;53.112;7.356;2022-08-24T01:23:48;29.50;99.90
19908;DHT22;10116;53.112;7.356;2022-08-24T01:26:53;29.50;99.90
19908;DHT22;10116;53.112;7.356;2022-08-24T01:29:21;29.50;99.90
19908;DHT22;10116;53.112;7.356;2022-08-24T01:31:47;29.50;99.90
19908;DHT22;10116;53.112;7.356;2022-08-24T01:34:13;29.50;99.90
19908;DHT22;10116;53.112;7.356;2022-08-24T01:36:46;29.50;99.90
19908;DHT22;10116;53.112;7.356;2022-08-24T01:39:16;29.50;99.90
19908;DHT22;10116;53.112;7.356;2022-08-24T01:41:45;29.50;99.90
19908;DHT22;10116;53.112;7.356;2022-08-24T01:44:11;29.50;99.90
19908;DHT22;10116;53.112;7.356;2022-08-24T01:46:41;29.50;99.90
19908;DHT22;10116;53.112;7.356;2022-08-24T01:49:07;29.40;99.90
19908;DHT22;10116;53.112;7.356;2022-08-24T01:51:32;29.40;99.90
19908;DHT22;10116;53.112;7.356;2022-08-24T01:53:59;29.40;99.90
19908;DHT22;10116;53.112;7.356;2022-08-24T01:56:27;29.40;99.90
19908;DHT22;10116;53.112;7.356;2022-08-24T01:58:53;29.40;99.90
19908;DHT22;10116;53.112;7.356;2022-08-24T02:01:20;29.40;99.90
19908;DHT22;10116;53.112;7.356;2022-08-24T02:03:45;29.40;99.90
19908;DHT22;10116;53.112;7.356;2022-08-24T02:06:11;29.40;99.90
19908;DHT22;10116;53.112;7.356;2022-08-24T02:08:37;29.40;99.90
19908;DHT22;10116;53.112;7.356;2022-08-24T02:11:05;29.40;99.90
19908;DHT22;10116;53.112;7.356;2022-08-24T02:13:31;29.40;99.90
19908;DHT22;10116;53.112;7.356;2022-08-24T02:15:57;29.40;99.90
19908;DHT22;10116;53.112;7.356;2022-08-24T02:18:23;29.40;99.90
19908;DHT22;10116;53.112;7.356;2022-08-24T02:20:49;29.40;99.90
19908;DHT22;10116;53.112;7.356;2022-08-24T02:23:14;29.40;99.90
19908;DHT22;10116;53.112;7.356;2022-08-24T02:25:40;29.40;99.90
19908;DHT22;10116;53.112;7.356;2022-08-24T02:28:06;29.40;99.90
19908;DHT22;10116;53.112;7.356;2022-08-24T02:30:31;29.40;99.90
19908;DHT22;10116;53.112;7.356;2022-08-24T02:32:57;29.40;99.90
19908;DHT22;10116;53.112;7.356;2022-08-24T02:35:23;29.30;99.90
19908;DHT22;10116;53.112;7.356;2022-08-24T02:37:49;29.30;99.90
19908;DHT22;10116;53.112;7.356;2022-08-24T02:40:15;29.30;99.90
19908;DHT22;10116;53.112;7.356;2022-08-24T02:42:41;29.30;99.90
19908;DHT22;10116;53.112;7.356;2022-08-24T02:45:08;29.30;99.90
19908;DHT22;10116;53.112;7.356;2022-08-24T02:47:35;29.30;99.90
19908;DHT22;10116;53.112;7.356;2022-08-24T02:50:02;29.30;99.90
19908;DHT22;10116;53.112;7.356;2022-08-24T02:52:28;29.30;99.90
19908;DHT22;10116;53.112;7.356;2022-08-24T02:54:53;29.30;99.90
19908;DHT22;10116;53.112;7.356;2022-08-24T02:57:19;29.30;99.90
19908;DHT22;10116;53.112;7.356;2022-08-24T02:59:45;29.30;99.90
19908;DHT22;10116;53.112;7.356;2022-08-24T03:02:10;29.30;99.90
19908;DHT22;10116;53.112;7.356;2022-08-24T03:04:36;29.30;99.90
19908;DHT22;10116;53.112;7.356;2022-08-24T03:07:02;29.30;99.90
19908;DHT22;10116;53.112;7.356;2022-08-24T03:09:27;29.30;99.90
19908;DHT22;10116;53.112;7.356;2022-08-24T03:11:53;29.20;99.90
19908;DHT22;10116;53.112;7.356;2022-08-24T03:14:19;29.30;99.90
19908;DHT22;10116;53.112;7.356;2022-08-24T03:16:45;29.30;99.90
19908;DHT22;10116;53.112;7.356;2022-08-24T03:19:12;29.30;99.90
19908;DHT22;10116;53.112;7.356;2022-08-24T03:21:38;29.30;99.90
19908;DHT22;10116;53.112;7.356;2022-08-24T03:24:03;29.30;99.90
19908;DHT22;10116;53.112;7.356;2022-08-24T03:26:29;29.30;99.90
19908;DHT22;10116;53.112;7.356;2022-08-24T03:28:55;29.30;99.90
19908;DHT22;10116;53.112;7.356;2022-08-24T03:31:21;29.30;99.90
19908;DHT22;10116;53.112;7.356;2022-08-24T03:33:47;29.30;99.90
19908;DHT22;10116;53.112;7.356;2022-08-24T03:36:12;29.30;99.90
19908;DHT22;10116;53.112;7.356;2022-08-24T03:38:38;29.40;99.90
19908;DHT22;10116;53.112;7.356;2022-08-24T03:41:04;29.50;99.90
19908;DHT22;10116;53.112;7.356;2022-08-24T03:43:29;29.50;99.90
19908;DHT22;10116;53.112;7.356;2022-08-24T03:46:11;29.60;99.90
19908;DHT22;10116;53.112;7.356;2022-08-24T03:48:38;29.60;99.90
19908;DHT22;10116;53.112;7.356;2022-08-24T03:51:06;29.60;99.90
19908;DHT22;10116;53.112;7.356;2022-08-24T03:53:32;29.60;99.90
19908;DHT22;10116;53.112;7.356;2022-08-24T03:55:57;29.60;99.90
19908;DHT22;10116;53.112;7.356;2022-08-24T03:58:23;29.60;99.90
19908;DHT22;10116;53.112;7.356;2022-08-24T04:00:49;29.70;99.90
19908;DHT22;10116;53.112;7.356;2022-08-24T04:03:15;29.70;99.90
19908;DHT22;10116;53.112;7.356;2022-08-24T04:05:41;29.60;99.90
19908;DHT22;10116;53.112;7.356;2022-08-24T04:08:07;29.70;99.90
19908;DHT22;10116;53.112;7.356;2022-08-24T04:10:33;29.70;99.90
19908;DHT22;10116;53.112;7.356;2022-08-24T04:12:59;29.70;99.90
19908;DHT22;10116;53.112;7.356;2022-08-24T04:15:26;29.70;99.90
19908;DHT22;10116;53.112;7.356;2022-08-24T04:17:52;29.60;99.90
19908;DHT22;10116;53.112;7.356;2022-08-24T04:20:18;29.70;99.90
19908;DHT22;10116;53.112;7.356;2022-08-24T04:22:44;29.70;99.90
19908;DHT22;10116;53.112;7.356;2022-08-24T04:25:10;29.60;99.90
19908;DHT22;10116;53.112;7.356;2022-08-24T04:27:37;29.70;99.90
19908;DHT22;10116;53.112;7.356;2022-08-24T04:30:03;29.70;99.90
19908;DHT22;10116;53.112;7.356;2022-08-24T04:32:31;29.70;99.90
19908;DHT22;10116;53.112;7.356;2022-08-24T04:34:57;29.70;99.90
19908;DHT22;10116;53.112;7.356;2022-08-24T04:37:24;29.70;99.90
19908;DHT22;10116;53.112;7.356;2022-08-24T04:39:50;29.70;99.90
19908;DHT22;10116;53.112;7.356;2022-08-24T04:42:16;29.70;99.90
19908;DHT22;10116;53.112;7.356;2022-08-24T04:44:42;29.70;99.90
19908;DHT22;10116;53.112;7.356;2022-08-24T04:47:07;29.70;99.90
19908;DHT22;10116;53.112;7.356;2022-08-24T04:49:34;29.70;99.90
19908;DHT22;10116;53.112;7.356;2022-08-24T04:52:00;29.60;99.90
19908;DHT22;10116;53.112;7.356;2022-08-24T04:54:26;29.60;99.90
19908;DHT22;10116;53.112;7.356;2022-08-24T04:56:52;29.70;99.90
19908;DHT22;10116;53.112;7.356;2022-08-24T04:59:17;29.60;99.90
19908;DHT22;10116;53.112;7.356;2022-08-24T05:01:43;29.60;99.90
19908;DHT22;10116;53.112;7.356;2022-08-24T05:04:09;29.60;99.90
19908;DHT22;10116;53.112;7.356;2022-08-24T05:06:35;29.60;99.90
19908;DHT22;10116;53.112;7.356;2022-08-24T05:09:02;29.60;99.90
19908;DHT22;10116;53.112;7.356;2022-08-24T05:11:28;29.60;99.90
19908;DHT22;10116;53.112;7.356;2022-08-24T05:13:54;29.60;99.90
19908;DHT22;10116;53.112;7.356;2022-08-24T05:16:21;29.60;99.90
19908;DHT22;10116;53.112;7.356;2022-08-24T05:18:47;29.60;99.90
19908;DHT22;10116;53.112;7.356;2022-08-24T05:21:16;29.60;99.90
19908;DHT22;10116;53.112;7.356;2022-08-24T05:23:42;29.60;99.90
19908;DHT22;10116;53.112;7.356;2022-08-24T05:26:13;29.60;99.90
19908;DHT22;10116;53.112;7.356;2022-08-24T05:28:40;29.60;99.90
19908;DHT22;10116;53.112;7.356;2022-08-24T05:31:20;29.60;99.90
19908;DHT22;10116;53.112;7.356;2022-08-24T05:33:47;29.70;99.90
19908;DHT22;10116;53.112;7.356;2022-08-24T05:36:18;29.70;99.90
19908;DHT22;10116;53.112;7.356;2022-08-24T05:38:45;29.80;99.90
19908;DHT22;10116;53.112;7.356;2022-08-24T05:41:12;29.80;99.90
19908;DHT22;10116;53.112;7.356;2022-08-24T05:43:38;29.80;99.90
19908;DHT22;10116;53.112;7.356;2022-08-24T05:46:04;29.90;99.90
19908;DHT22;10116;53.112;7.356;2022-08-24T05:48:30;29.90;99.90
19908;DHT22;10116;53.112;7.356;2022-08-24T05:50:56;30.00;99.90
19908;DHT22;10116;53.112;7.356;2022-08-24T05:53:23;30.00;99.90
19908;DHT22;10116;53.112;7.356;2022-08-24T05:55:48;30.10;99.90
19908;DHT22;10116;53.112;7.356;2022-08-24T05:58:14;30.10;99.90
19908;DHT22;10116;53.112;7.356;2022-08-24T06:00:40;30.10;99.90
19908;DHT22;10116;53.112;7.356;2022-08-24T06:03:05;30.10;99.90
19908;DHT22;10116;53.112;7.356;2022-08-24T06:05:32;30.10;99.90
19908;DHT22;10116;53.112;7.356;2022-08-24T06:07:57;30.20;99.90
19908;DHT22;10116;53.112;7.356;2022-08-24T06:10:23;30.20;99.90
19908;DHT22;10116;53.112;7.356;2022-08-24T06:12:50;30.20;99.90
19908;DHT22;10116;53.112;7.356;2022-08-24T06:15:15;30.20;99.90
19908;DHT22;10116;53.112;7.356;2022-08-24T06:17:41;30.20;99.90
19908;DHT22;10116;53.112;7.356;2022-08-24T06:20:08;30.20;99.90
19908;DHT22;10116;53.112;7.356;2022-08-24T06:22:33;30.20;99.90
19908;DHT22;10116;53.112;7.356;2022-08-24T06:24:59;30.20;99.90
19908;DHT22;10116;53.112;7.356;2022-08-24T06:27:43;30.10;99.90
19908;DHT22;10116;53.112;7.356;2022-08-24T06:30:10;30.10;99.90
19908;DHT22;10116;53.112;7.356;2022-08-24T06:32:36;30.10;99.90
19908;DHT22;10116;53.112;7.356;2022-08-24T06:35:03;30.10;99.90
19908;DHT22;10116;53.112;7.356;2022-08-24T06:37:29;30.10;99.90
19908;DHT22;10116;53.112;7.356;2022-08-24T06:39:56;30.10;99.90
19908;DHT22;10116;53.112;7.356;2022-08-24T06:42:22;30.10;99.90
19908;DHT22;10116;53.112;7.356;2022-08-24T06:44:49;30.10;99.90
19908;DHT22;10116;53.112;7.356;2022-08-24T06:47:16;30.10;99.90
19908;DHT22;10116;53.112;7.356;2022-08-24T06:49:42;30.10;99.90
19908;DHT22;10116;53.112;7.356;2022-08-24T06:52:08;30.10;99.90
19908;DHT22;10116;53.112;7.356;2022-08-24T06:54:36;30.10;99.90
19908;DHT22;10116;53.112;7.356;2022-08-24T06:57:02;30.10;99.90
19908;DHT22;10116;53.112;7.356;2022-08-24T06:59:28;30.10;99.90
19908;DHT22;10116;53.112;7.356;2022-08-24T07:01:55;30.10;99.90
19908;DHT22;10116;53.112;7.356;2022-08-24T07:04:22;30.10;99.90
19908;DHT22;10116;53.112;7.356;2022-08-24T07:06:49;30.10;99.90
19908;DHT22;10116;53.112;7.356;2022-08-24T07:09:15;30.10;99.90
19908;DHT22;10116;53.112;7.356;2022-08-24T07:11:41;30.20;99.90
19908;DHT22;10116;53.112;7.356;2022-08-24T07:14:06;30.20;99.90
19908;DHT22;10116;53.112;7.356;2022-08-24T07:16:32;30.20;99.90
19908;DHT22;10116;53.112;7.356;2022-08-24T07:18:59;30.20;99.90
19908;DHT22;10116;53.112;7.356;2022-08-24T07:21:26;30.20;99.90
19908;DHT22;10116;53.112;7.356;2022-08-24T07:23:57;30.20;99.90
19908;DHT22;10116;53.112;7.356;2022-08-24T07:26:25;30.20;99.90
19908;DHT22;10116;53.112;7.356;2022-08-24T07:29:01;30.20;99.90
19908;DHT22;10116;53.112;7.356;2022-08-24T07:31:32;30.20;99.90
19908;DHT22;10116;53.112;7.356;2022-08-24T07:33:57;30.20;99.90
19908;DHT22;10116;53.112;7.356;2022-08-24T07:36:23;30.20;99.90
19908;DHT22;10116;53.112;7.356;2022-08-24T07:38:50;30.20;99.90
19908;DHT22;10116;53.112;7.356;2022-08-24T07:41:21;30.20;99.90
19908;DHT22;10116;53.112;7.356;2022-08-24T07:43:47;30.20;99.90
19908;DHT22;10116;53.112;7.356;2022-08-24T07:46:13;30.20;99.90
19908;DHT22;10116;53.112;7.356;2022-08-24T07:48:39;30.20;99.90
19908;DHT22;10116;53.112;7.356;2022-08-24T07:51:09;30.20;99.90
19908;DHT22;10116;53.112;7.356;2022-08-24T07:53:36;30.20;99.90
19908;DHT22;10116;53.112;7.356;2022-08-24T07:56:02;30.20;99.90
19908;DHT22;10116;53.112;7.356;2022-08-24T07:58:28;30.20;99.90
19908;DHT22;10116;53.112;7.356;2022-08-24T08:00:54;30.20;99.90
19908;DHT22;10116;53.112;7.356;2022-08-24T08:03:19;30.20;99.90
19908;DHT22;10116;53.112;7.356;2022-08-24T08:05:46;30.10;99.90
19908;DHT22;10116;53.112;7.356;2022-08-24T08:08:14;30.10;99.90
19908;DHT22;10116;53.112;7.356;2022-08-24T08:10:39;30.10;99.90
19908;DHT22;10116;53.112;7.356;2022-08-24T08:13:06;30.10;99.90
19908;DHT22;10116;53.112;7.356;2022-08-24T08:15:32;30.10;99.90
19908;DHT22;10116;53.112;7.356;2022-08-24T08:17:58;30.10;99.90
19908;DHT22;10116;53.112;7.356;2022-08-24T08:20:24;30.10;99.90
19908;DHT22;10116;53.112;7.356;2022-08-24T08:22:50;30.10;99.90
19908;DHT22;10116;53.112;7.356;2022-08-24T08:25:34;30.10;99.90
19908;DHT22;10116;53.112;7.356;2022-08-24T08:28:03;30.10;99.90
19908;DHT22;10116;53.112;7.356;2022-08-24T08:30:30;30.10;99.90
19908;DHT22;10116;53.112;7.356;2022-08-24T08:32:56;30.10;99.90
19908;DHT22;10116;53.112;7.356;2022-08-24T08:35:22;30.10;99.90
19908;DHT22;10116;53.112;7.356;2022-08-24T08:37:48;30.10;99.90
19908;DHT22;10116;53.112;7.356;2022-08-24T08:40:42;30.10;99.90
19908;DHT22;10116;53.112;7.356;2022-08-24T08:54:44;30.10;99.90
19908;DHT22;10116;53.112;7.356;2022-08-24T08:57:33;30.00;99.90
19908;DHT22;10116;53.112;7.356;2022-08-24T09:00:20;30.00;99.90
19908;DHT22;10116;53.112;7.356;2022-08-24T09:03:00;30.00;99.90
19908;DHT22;10116;53.112;7.356;2022-08-24T09:05:40;30.00;99.90
19908;DHT22;10116;53.112;7.356;2022-08-24T09:16:30;30.00;99.90
19908;DHT22;10116;53.112;7.356;2022-08-24T09:22:19;29.90;99.90
19908;DHT22;10116;53.112;7.356;2022-08-24T09:27:40;29.90;99.90
19908;DHT22;10116;53.112;7.356;2022-08-24T09:30:12;29.90;99.90
19908;DHT22;10116;53.112;7.356;2022-08-24T09:35:15;29.90;99.90
19908;DHT22;10116;53.112;7.356;2022-08-24T09:43:51;29.90;99.90
19908;DHT22;10116;53.112;7.356;2022-08-24T10:00:24;29.90;99.90
19908;DHT22;10116;53.112;7.356;2022-08-24T10:17:19;30.30;99.90
19908;DHT22;10116;53.112;7.356;2022-08-24T10:25:38;30.40;99.90
19908;DHT22;10116;53.112;7.356;2022-08-24T10:35:17;30.60;99.90
19908;DHT22;10116;53.112;7.356;2022-08-24T10:46:50;30.60;99.90
19908;DHT22;10116;53.112;7.356;2022-08-24T10:55:19;30.60;99.90
19908;DHT22;10116;53.112;7.356;2022-08-24T11:00:27;30.60;99.90
19908;DHT22;10116;53.112;7.356;2022-08-24T11:03:14;30.60;99.90
19908;DHT22;10116;53.112;7.356;2022-08-24T11:05:45;30.60;99.90
19908;DHT22;10116;53.112;7.356;2022-08-24T11:08:24;30.60;99.90
19908;DHT22;10116;53.112;7.356;2022-08-24T11:11:15;30.60;99.90
19908;DHT22;10116;53.112;7.356;2022-08-24T11:13:52;30.60;99.90
19908;DHT22;10116;53.112;7.356;2022-08-24T11:16:30;30.60;99.90
19908;DHT22;10116;53.112;7.356;2022-08-24T11:18:58;30.60;99.90
19908;DHT22;10116;53.112;7.356;2022-08-24T11:21:32;30.60;99.90
19908;DHT22;10116;53.112;7.356;2022-08-24T11:24:30;30.60;99.90
19908;DHT22;10116;53.112;7.356;2022-08-24T11:34:49;30.70;99.90
19908;DHT22;10116;53.112;7.356;2022-08-24T11:37:15;30.70;99.90
19908;DHT22;10116;53.112;7.356;2022-08-24T11:39:41;30.70;99.90
19908;DHT22;10116;53.112;7.356;2022-08-24T11:42:21;30.70;99.90
19908;DHT22;10116;53.112;7.356;2022-08-24T11:45:18;30.70;99.90
19908;DHT22;10116;53.112;7.356;2022-08-24T11:48:03;30.70;99.90
19908;DHT22;10116;53.112;7.356;2022-08-24T11:50:48;30.70;99.90
19908;DHT22;10116;53.112;7.356;2022-08-24T11:58:50;30.70;99.90
19908;DHT22;10116;53.112;7.356;2022-08-24T12:09:27;30.90;99.90
19908;DHT22;10116;53.112;7.356;2022-08-24T12:14:43;31.00;99.90
19908;DHT22;10116;53.112;7.356;2022-08-24T12:17:36;31.00;99.90
19908;DHT22;10116;53.112;7.356;2022-08-24T12:22:49;31.00;99.90
19908;DHT22;10116;53.112;7.356;2022-08-24T12:25:16;31.00;99.90
19908;DHT22;10116;53.112;7.356;2022-08-24T12:28:03;31.00;99.90
19908;DHT22;10116;53.112;7.356;2022-08-24T12:30:29;31.00;99.90
19908;DHT22;10116;53.112;7.356;2022-08-24T12:33:01;31.10;99.90
19908;DHT22;10116;53.112;7.356;2022-08-24T12:35:41;31.10;99.90
19908;DHT22;10116;53.112;7.356;2022-08-24T12:38:37;31.10;99.90
19908;DHT22;10116;53.112;7.356;2022-08-24T12:41:18;31.10;99.90
19908;DHT22;10116;53.112;7.356;2022-08-24T12:46:12;31.00;99.90
19908;DHT22;10116;53.112;7.356;2022-08-24T12:48:48;31.00;99.90
19908;DHT22;10116;53.112;7.356;2022-08-24T12:57:18;31.00;99.90
19908;DHT22;10116;53.112;7.356;2022-08-24T12:59:50;31.00;99.90
19908;DHT22;10116;53.112;7.356;2022-08-24T13:04:57;31.00;99.90
19908;DHT22;10116;53.112;7.356;2022-08-24T13:12:50;31.00;99.90
19908;DHT22;10116;53.112;7.356;2022-08-24T13:31:02;31.10;99.90
19908;DHT22;10116;53.112;7.356;2022-08-24T13:33:51;31.10;99.90
19908;DHT22;10116;53.112;7.356;2022-08-24T13:52:49;31.10;99.90
19908;DHT22;10116;53.112;7.356;2022-08-24T14:04:01;31.00;99.90
19908;DHT22;10116;53.112;7.356;2022-08-24T14:12:35;31.00;99.90
19908;DHT22;10116;53.112;7.356;2022-08-24T14:15:24;31.00;99.90
19908;DHT22;10116;53.112;7.356;2022-08-24T14:18:12;31.00;99.90
19908;DHT22;10116;53.112;7.356;2022-08-24T14:25:42;31.10;99.90
19908;DHT22;10116;53.112;7.356;2022-08-24T14:31:36;31.20;99.90
19908;DHT22;10116;53.112;7.356;2022-08-24T14:34:14;31.30;99.90
19908;DHT22;10116;53.112;7.356;2022-08-24T14:36:57;31.20;99.90
19908;DHT22;10116;53.112;7.356;2022-08-24T14:42:31;31.30;99.90
19908;DHT22;10116;53.112;7.356;2022-08-24T14:45:34;31.30;99.90
19908;DHT22;10116;53.112;7.356;2022-08-24T14:50:59;31.20;99.90
19908;DHT22;10116;53.112;7.356;2022-08-24T15:02:42;31.20;99.90
19908;DHT22;10116;53.112;7.356;2022-08-24T15:08:00;31.10;99.90
19908;DHT22;10116;53.112;7.356;2022-08-24T15:16:06;31.10;99.90
19908;DHT22;10116;53.112;7.356;2022-08-24T15:24:13;31.10;99.90
19908;DHT22;10116;53.112;7.356;2022-08-24T15:29:14;31.00;99.90
19908;DHT22;10116;53.112;7.356;2022-08-24T15:31:41;31.00;99.90
19908;DHT22;10116;53.112;7.356;2022-08-24T15:34:07;30.90;99.90
19908;DHT22;10116;53.112;7.356;2022-08-24T15:36:33;30.90;99.90
19908;DHT22;10116;53.112;7.356;2022-08-24T15:39:04;30.90;99.90
19908;DHT22;10116;53.112;7.356;2022-08-24T15:41:36;30.90;99.90
19908;DHT22;10116;53.112;7.356;2022-08-24T15:44:13;30.90;99.90
19908;DHT22;10116;53.112;7.356;2022-08-24T15:46:47;30.90;99.90
19908;DHT22;10116;53.112;7.356;2022-08-24T15:49:18;30.90;99.90
19908;DHT22;10116;53.112;7.356;2022-08-24T15:51:55;30.90;99.90
19908;DHT22;10116;53.112;7.356;2022-08-24T15:56:49;30.90;99.90
19908;DHT22;10116;53.112;7.356;2022-08-24T16:10:33;30.90;99.90
19908;DHT22;10116;53.112;7.356;2022-08-24T16:15:46;30.90;99.90
19908;DHT22;10116;53.112;7.356;2022-08-24T16:18:13;30.90;99.90
19908;DHT22;10116;53.112;7.356;2022-08-24T16:20:39;31.00;99.90
19908;DHT22;10116;53.112;7.356;2022-08-24T16:23:09;31.00;99.90
19908;DHT22;10116;53.112;7.356;2022-08-24T16:25:41;31.10;99.90
19908;DHT22;10116;53.112;7.356;2022-08-24T16:28:30;31.10;99.90
19908;DHT22;10116;53.112;7.356;2022-08-24T16:30:58;31.10;99.90
19908;DHT22;10116;53.112;7.356;2022-08-24T16:36:01;31.10;99.90
19908;DHT22;10116;53.112;7.356;2022-08-24T16:38:28;31.10;99.90
19908;DHT22;10116;53.112;7.356;2022-08-24T16:41:05;31.10;99.90
19908;DHT22;10116;53.112;7.356;2022-08-24T16:43:33;31.10;99.90
19908;DHT22;10116;53.112;7.356;2022-08-24T16:45:59;31.10;99.90
19908;DHT22;10116;53.112;7.356;2022-08-24T16:48:26;31.10;99.90
19908;DHT22;10116;53.112;7.356;2022-08-24T16:50:52;31.10;99.90
19908;DHT22;10116;53.112;7.356;2022-08-24T16:53:20;31.10;99.90
19908;DHT22;10116;53.112;7.356;2022-08-24T16:55:46;31.10;99.90
19908;DHT22;10116;53.112;7.356;2022-08-24T16:58:13;31.10;99.90
19908;DHT22;10116;53.112;7.356;2022-08-24T17:00:40;31.10;99.90
19908;DHT22;10116;53.112;7.356;2022-08-24T17:03:05;31.10;99.90
19908;DHT22;10116;53.112;7.356;2022-08-24T17:05:31;31.10;99.90
19908;DHT22;10116;53.112;7.356;2022-08-24T17:07:58;31.10;99.90
19908;DHT22;10116;53.112;7.356;2022-08-24T17:10:24;31.00;99.90
19908;DHT22;10116;53.112;7.356;2022-08-24T17:12:52;31.00;99.90
19908;DHT22;10116;53.112;7.356;2022-08-24T17:15:17;31.00;99.90
19908;DHT22;10116;53.112;7.356;2022-08-24T17:17:58;31.00;99.90
19908;DHT22;10116;53.112;7.356;2022-08-24T17:20:26;31.00;99.90
19908;DHT22;10116;53.112;7.356;2022-08-24T17:22:51;31.00;99.90
19908;DHT22;10116;53.112;7.356;2022-08-24T17:25:17;30.90;99.90
19908;DHT22;10116;53.112;7.356;2022-08-24T17:27:43;30.90;99.90
19908;DHT22;10116;53.112;7.356;2022-08-24T17:30:09;30.90;99.90
19908;DHT22;10116;53.112;7.356;2022-08-24T17:32:35;30.90;99.90
19908;DHT22;10116;53.112;7.356;2022-08-24T17:35:01;30.80;99.90
19908;DHT22;10116;53.112;7.356;2022-08-24T17:37:28;30.80;99.90
19908;DHT22;10116;53.112;7.356;2022-08-24T17:39:55;30.80;99.90
19908;DHT22;10116;53.112;7.356;2022-08-24T17:42:21;30.80;99.90
19908;DHT22;10116;53.112;7.356;2022-08-24T17:44:47;30.80;99.90
19908;DHT22;10116;53.112;7.356;2022-08-24T17:47:13;30.80;99.90
19908;DHT22;10116;53.112;7.356;2022-08-24T17:49:39;30.80;99.90
19908;DHT22;10116;53.112;7.356;2022-08-24T17:52:05;30.80;99.90
19908;DHT22;10116;53.112;7.356;2022-08-24T17:54:31;30.80;99.90
19908;DHT22;10116;53.112;7.356;2022-08-24T17:56:57;30.80;99.90
19908;DHT22;10116;53.112;7.356;2022-08-24T17:59:29;30.80;99.90
19908;DHT22;10116;53.112;7.356;2022-08-24T18:02:05;30.80;99.90
19908;DHT22;10116;53.112;7.356;2022-08-24T18:04:32;30.70;99.90
19908;DHT22;10116;53.112;7.356;2022-08-24T18:07:00;30.70;99.90
19908;DHT22;10116;53.112;7.356;2022-08-24T18:09:37;30.70;99.90
19908;DHT22;10116;53.112;7.356;2022-08-24T18:12:05;30.70;99.90
19908;DHT22;10116;53.112;7.356;2022-08-24T18:14:31;30.80;99.90
19908;DHT22;10116;53.112;7.356;2022-08-24T18:17:02;30.80;99.90
19908;DHT22;10116;53.112;7.356;2022-08-24T18:19:30;30.80;99.90
19908;DHT22;10116;53.112;7.356;2022-08-24T18:21:57;30.90;99.90
19908;DHT22;10116;53.112;7.356;2022-08-24T18:24:22;31.00;99.90
19908;DHT22;10116;53.112;7.356;2022-08-24T18:26:50;31.00;99.90
19908;DHT22;10116;53.112;7.356;2022-08-24T18:29:19;31.00;99.90
19908;DHT22;10116;53.112;7.356;2022-08-24T18:31:45;31.00;99.90
19908;DHT22;10116;53.112;7.356;2022-08-24T18:34:16;31.00;99.90
19908;DHT22;10116;53.112;7.356;2022-08-24T18:36:43;31.10;99.90
19908;DHT22;10116;53.112;7.356;2022-08-24T18:39:08;31.10;99.90
19908;DHT22;10116;53.112;7.356;2022-08-24T18:41:37;31.10;99.90
19908;DHT22;10116;53.112;7.356;2022-08-24T18:44:04;31.10;99.90
19908;DHT22;10116;53.112;7.356;2022-08-24T18:46:31;31.10;99.90
19908;DHT22;10116;53.112;7.356;2022-08-24T18:48:58;31.00;99.90
19908;DHT22;10116;53.112;7.356;2022-08-24T18:51:24;31.00;99.90
19908;DHT22;10116;53.112;7.356;2022-08-24T18:53:59;31.00;99.90
19908;DHT22;10116;53.112;7.356;2022-08-24T18:56:26;31.00;99.90
19908;DHT22;10116;53.112;7.356;2022-08-24T18:58:52;31.00;99.90
19908;DHT22;10116;53.112;7.356;2022-08-24T19:01:20;31.00;99.90
19908;DHT22;10116;53.112;7.356;2022-08-24T19:03:46;31.00;99.90
19908;DHT22;10116;53.112;7.356;2022-08-24T19:06:12;31.00;99.90
19908;DHT22;10116;53.112;7.356;2022-08-24T19:08:37;31.00;99.90
19908;DHT22;10116;53.112;7.356;2022-08-24T19:11:04;31.00;99.90
19908;DHT22;10116;53.112;7.356;2022-08-24T19:13:30;31.00;99.90
19908;DHT22;10116;53.112;7.356;2022-08-24T19:15:56;31.00;99.90
19908;DHT22;10116;53.112;7.356;2022-08-24T19:18:22;30.90;99.90
19908;DHT22;10116;53.112;7.356;2022-08-24T19:20:50;30.90;99.90
19908;DHT22;10116;53.112;7.356;2022-08-24T19:23:26;30.90;99.90
19908;DHT22;10116;53.112;7.356;2022-08-24T19:25:52;30.90;99.90
19908;DHT22;10116;53.112;7.356;2022-08-24T19:28:19;30.90;99.90
19908;DHT22;10116;53.112;7.356;2022-08-24T19:30:45;30.90;99.90
19908;DHT22;10116;53.112;7.356;2022-08-24T19:33:18;30.90;99.90
19908;DHT22;10116;53.112;7.356;2022-08-24T19:35:46;30.90;99.90
19908;DHT22;10116;53.112;7.356;2022-08-24T19:38:12;30.90;99.90
19908;DHT22;10116;53.112;7.356;2022-08-24T19:40:37;30.90;99.90
19908;DHT22;10116;53.112;7.356;2022-08-24T19:43:03;30.90;99.90
19908;DHT22;10116;53.112;7.356;2022-08-24T19:45:29;30.90;99.90